sensor_id;sensor_type;location;lat;lon;timestamp;temperature;humidity
48264;DHT22;34086;51.076;13.722;2024-02-16T00:00:27;7.80;99.90
48264;DHT22;34086;51.076;13.722;2024-02-16T00:01:28;7.80;99.90
48264;DHT22;34086;51.076;13.722;2024-02-16T00:02:29;7.70;99.90
48264;DHT22;34086;51.076;13.722;2024-02-16T00:03:30;7.60;99.90
48264;DHT22;34086;51.076;13.722;2024-02-16T00:04:31;7.60;99.90
48264;DHT22;34086;51.076;13.722;2024-02-16T00:05:32;7.60;99.90
48264;DHT22;34086;51.076;13.722;2024-02-16T00:06:33;7.60;99.90
48264;DHT22;34086;51.076;13.722;2024-02-16T00:07:34;7.70;99.90
48264;DHT22;34086;51.076;13.722;2024-02-16T00:08:34;7.70;99.90
48264;DHT22;34086;51.076;13.722;2024-02-16T00:09:39;7.60;99.90
48264;DHT22;34086;51.076;13.722;2024-02-16T00:10:39;7.60;99.90
48264;DHT22;34086;51.076;13.722;2024-02-16T00:11:40;7.70;99.90
48264;DHT22;34086;51.076;13.722;2024-02-16T00:12:40;7.60;99.90
48264;DHT22;34086;51.076;13.722;2024-02-16T00:13:42;7.60;99.90
48264;DHT22;34086;51.076;13.722;2024-02-16T00:14:43;7.60;99.90
48264;DHT22;34086;51.076;13.722;2024-02-16T00:15:43;7.70;99.90
48264;DHT22;34086;51.076;13.722;2024-02-16T00:16:44;7.70;99.90
48264;DHT22;34086;51.076;13.722;2024-02-16T00:17:44;7.70;99.90
48264;DHT22;34086;51.076;13.722;2024-02-16T00:18:45;7.70;99.90
48264;DHT22;34086;51.076;13.722;2024-02-16T00:19:46;7.70;99.90
48264;DHT22;34086;51.076;13.722;2024-02-16T00:20:46;7.70;99.90
48264;DHT22;34086;51.076;13.722;2024-02-16T00:21:47;7.60;99.90
48264;DHT22;34086;51.076;13.722;2024-02-16T00:22:47;7.60;99.90
48264;DHT22;34086;51.076;13.722;2024-02-16T00:23:48;7.60;99.90
48264;DHT22;34086;51.076;13.722;2024-02-16T00:24:48;7.60;99.90
48264;DHT22;34086;51.076;13.722;2024-02-16T00:25:49;7.60;99.90
48264;DHT22;34086;51.076;13.722;2024-02-16T00:26:50;7.60;99.90
48264;DHT22;34086;51.076;13.722;2024-02-16T00:27:50;7.50;99.90
48264;DHT22;34086;51.076;13.722;2024-02-16T00:28:54;7.50;99.90
48264;DHT22;34086;51.076;13.722;2024-02-16T00:29:54;7.50;99.90
48264;DHT22;34086;51.076;13.722;2024-02-16T00:30:55;7.50;99.90
48264;DHT22;34086;51.076;13.722;2024-02-16T00:31:55;7.40;99.90
48264;DHT22;34086;51.076;13.722;2024-02-16T00:32:56;7.40;99.90
48264;DHT22;34086;51.076;13.722;2024-02-16T00:33:56;7.40;99.90
48264;DHT22;34086;51.076;13.722;2024-02-16T00:34:57;7.40;99.90
48264;DHT22;34086;51.076;13.722;2024-02-16T00:35:58;7.40;99.90
48264;DHT22;34086;51.076;13.722;2024-02-16T00:36:59;7.40;99.90
48264;DHT22;34086;51.076;13.722;2024-02-16T00:38:00;7.40;99.90
48264;DHT22;34086;51.076;13.722;2024-02-16T00:39:00;7.40;99.90
48264;DHT22;34086;51.076;13.722;2024-02-16T00:40:01;7.40;99.90
48264;DHT22;34086;51.076;13.722;2024-02-16T00:41:01;7.40;99.90
48264;DHT22;34086;51.076;13.722;2024-02-16T00:42:03;7.30;99.90
48264;DHT22;34086;51.076;13.722;2024-02-16T00:43:03;7.30;99.90
48264;DHT22;34086;51.076;13.722;2024-02-16T00:44:04;7.30;99.90
48264;DHT22;34086;51.076;13.722;2024-02-16T00:45:05;7.30;99.90
48264;DHT22;34086;51.076;13.722;2024-02-16T00:46:05;7.30;99.90
48264;DHT22;34086;51.076;13.722;2024-02-16T00:47:06;7.20;99.90
48264;DHT22;34086;51.076;13.722;2024-02-16T00:48:07;7.20;99.90
48264;DHT22;34086;51.076;13.722;2024-02-16T00:49:07;7.20;99.90
48264;DHT22;34086;51.076;13.722;2024-02-16T00:50:11;7.30;99.90
48264;DHT22;34086;51.076;13.722;2024-02-16T00:51:11;7.40;99.90
48264;DHT22;34086;51.076;13.722;2024-02-16T00:52:12;7.40;99.90
48264;DHT22;34086;51.076;13.722;2024-02-16T00:53:13;7.50;99.90
48264;DHT22;34086;51.076;13.722;2024-02-16T00:54:13;7.50;99.90
48264;DHT22;34086;51.076;13.722;2024-02-16T00:55:14;7.50;99.90
48264;DHT22;34086;51.076;13.722;2024-02-16T00:56:14;7.50;99.90
48264;DHT22;34086;51.076;13.722;2024-02-16T00:57:15;7.50;99.90
48264;DHT22;34086;51.076;13.722;2024-02-16T00:58:16;7.50;99.90
48264;DHT22;34086;51.076;13.722;2024-02-16T00:59:17;7.50;99.90
48264;DHT22;34086;51.076;13.722;2024-02-16T01:00:18;7.40;99.90
48264;DHT22;34086;51.076;13.722;2024-02-16T01:01:20;7.40;99.90
48264;DHT22;34086;51.076;13.722;2024-02-16T01:02:22;7.40;99.90
48264;DHT22;34086;51.076;13.722;2024-02-16T01:03:23;7.40;99.90
48264;DHT22;34086;51.076;13.722;2024-02-16T01:04:24;7.30;99.90
48264;DHT22;34086;51.076;13.722;2024-02-16T01:05:24;7.30;99.90
48264;DHT22;34086;51.076;13.722;2024-02-16T01:06:25;7.30;99.90
48264;DHT22;34086;51.076;13.722;2024-02-16T01:07:25;7.30;99.90
48264;DHT22;34086;51.076;13.722;2024-02-16T01:08:26;7.20;99.90
48264;DHT22;34086;51.076;13.722;2024-02-16T01:09:27;7.20;99.90
48264;DHT22;34086;51.076;13.722;2024-02-16T01:10:28;7.20;99.90
48264;DHT22;34086;51.076;13.722;2024-02-16T01:11:28;7.20;99.90
48264;DHT22;34086;51.076;13.722;2024-02-16T01:12:29;7.20;99.90
48264;DHT22;34086;51.076;13.722;2024-02-16T01:13:32;7.20;99.90
48264;DHT22;34086;51.076;13.722;2024-02-16T01:14:33;7.10;99.90
48264;DHT22;34086;51.076;13.722;2024-02-16T01:15:33;7.10;99.90
48264;DHT22;34086;51.076;13.722;2024-02-16T01:16:34;7.10;99.90
48264;DHT22;34086;51.076;13.722;2024-02-16T01:17:36;7.10;99.90
48264;DHT22;34086;51.076;13.722;2024-02-16T01:18:36;7.10;99.90
48264;DHT22;34086;51.076;13.722;2024-02-16T01:19:37;7.10;99.90
48264;DHT22;34086;51.076;13.722;2024-02-16T01:20:38;7.10;99.90
48264;DHT22;34086;51.076;13.722;2024-02-16T01:21:39;7.10;99.90
48264;DHT22;34086;51.076;13.722;2024-02-16T01:22:40;7.10;99.90
48264;DHT22;34086;51.076;13.722;2024-02-16T01:23:40;7.10;99.90
48264;DHT22;34086;51.076;13.722;2024-02-16T01:24:41;7.10;99.90
48264;DHT22;34086;51.076;13.722;2024-02-16T01:25:41;7.10;99.90
48264;DHT22;34086;51.076;13.722;2024-02-16T01:26:42;7.10;99.90
48264;DHT22;34086;51.076;13.722;2024-02-16T01:27:43;7.10;99.90
48264;DHT22;34086;51.076;13.722;2024-02-16T01:28:43;7.10;99.90
48264;DHT22;34086;51.076;13.722;2024-02-16T01:29:44;7.10;99.90
48264;DHT22;34086;51.076;13.722;2024-02-16T01:30:44;7.10;99.90
48264;DHT22;34086;51.076;13.722;2024-02-16T01:31:45;7.00;99.90
48264;DHT22;34086;51.076;13.722;2024-02-16T01:32:46;7.00;99.90
48264;DHT22;34086;51.076;13.722;2024-02-16T01:33:46;7.00;99.90
48264;DHT22;34086;51.076;13.722;2024-02-16T01:34:47;7.00;99.90
48264;DHT22;34086;51.076;13.722;2024-02-16T01:35:50;7.00;99.90
48264;DHT22;34086;51.076;13.722;2024-02-16T01:36:50;7.00;99.90
48264;DHT22;34086;51.076;13.722;2024-02-16T01:37:51;7.00;99.90
48264;DHT22;34086;51.076;13.722;2024-02-16T01:38:51;7.00;99.90
48264;DHT22;34086;51.076;13.722;2024-02-16T01:39:52;7.00;99.90
48264;DHT22;34086;51.076;13.722;2024-02-16T01:40:53;7.00;99.90
48264;DHT22;34086;51.076;13.722;2024-02-16T01:41:53;7.00;99.90
48264;DHT22;34086;51.076;13.722;2024-02-16T01:42:54;7.00;99.90
48264;DHT22;34086;51.076;13.722;2024-02-16T01:43:55;7.00;99.90
48264;DHT22;34086;51.076;13.722;2024-02-16T01:44:55;7.00;99.90
48264;DHT22;34086;51.076;13.722;2024-02-16T01:45:56;7.10;99.90
48264;DHT22;34086;51.076;13.722;2024-02-16T01:46:59;7.00;99.90
48264;DHT22;34086;51.076;13.722;2024-02-16T01:48:00;7.10;99.90
48264;DHT22;34086;51.076;13.722;2024-02-16T01:49:01;7.10;99.90
48264;DHT22;34086;51.076;13.722;2024-02-16T01:50:02;7.10;99.90
48264;DHT22;34086;51.076;13.722;2024-02-16T01:51:03;7.10;99.90
48264;DHT22;34086;51.076;13.722;2024-02-16T01:52:05;7.10;99.90
48264;DHT22;34086;51.076;13.722;2024-02-16T01:53:06;7.10;99.90
48264;DHT22;34086;51.076;13.722;2024-02-16T01:54:06;7.10;99.90
48264;DHT22;34086;51.076;13.722;2024-02-16T01:55:07;7.10;99.90
48264;DHT22;34086;51.076;13.722;2024-02-16T01:56:11;7.10;99.90
48264;DHT22;34086;51.076;13.722;2024-02-16T01:57:12;7.10;99.90
48264;DHT22;34086;51.076;13.722;2024-02-16T01:58:13;7.10;99.90
48264;DHT22;34086;51.076;13.722;2024-02-16T01:59:14;7.10;99.90
48264;DHT22;34086;51.076;13.722;2024-02-16T02:00:15;7.10;99.90
48264;DHT22;34086;51.076;13.722;2024-02-16T02:01:18;7.10;99.90
48264;DHT22;34086;51.076;13.722;2024-02-16T02:02:18;7.10;99.90
48264;DHT22;34086;51.076;13.722;2024-02-16T02:03:19;7.10;99.90
48264;DHT22;34086;51.076;13.722;2024-02-16T02:04:20;7.20;99.90
48264;DHT22;34086;51.076;13.722;2024-02-16T02:05:20;7.20;99.90
48264;DHT22;34086;51.076;13.722;2024-02-16T02:06:21;7.20;99.90
48264;DHT22;34086;51.076;13.722;2024-02-16T02:07:25;7.20;99.90
48264;DHT22;34086;51.076;13.722;2024-02-16T02:08:27;7.20;99.90
48264;DHT22;34086;51.076;13.722;2024-02-16T02:09:28;7.20;99.90
48264;DHT22;34086;51.076;13.722;2024-02-16T02:10:28;7.20;99.90
48264;DHT22;34086;51.076;13.722;2024-02-16T02:11:29;7.20;99.90
48264;DHT22;34086;51.076;13.722;2024-02-16T02:12:29;7.20;99.90
48264;DHT22;34086;51.076;13.722;2024-02-16T02:13:30;7.30;99.90
48264;DHT22;34086;51.076;13.722;2024-02-16T02:14:30;7.30;99.90
48264;DHT22;34086;51.076;13.722;2024-02-16T02:15:31;7.40;99.90
48264;DHT22;34086;51.076;13.722;2024-02-16T02:16:32;7.50;99.90
48264;DHT22;34086;51.076;13.722;2024-02-16T02:17:33;7.50;99.90
48264;DHT22;34086;51.076;13.722;2024-02-16T02:18:34;7.60;99.90
48264;DHT22;34086;51.076;13.722;2024-02-16T02:19:35;7.60;99.90
48264;DHT22;34086;51.076;13.722;2024-02-16T02:20:36;7.60;99.90
48264;DHT22;34086;51.076;13.722;2024-02-16T02:21:36;7.60;99.90
48264;DHT22;34086;51.076;13.722;2024-02-16T02:22:37;7.60;99.90
48264;DHT22;34086;51.076;13.722;2024-02-16T02:23:38;7.60;99.90
48264;DHT22;34086;51.076;13.722;2024-02-16T02:24:38;7.60;99.90
48264;DHT22;34086;51.076;13.722;2024-02-16T02:25:39;7.60;99.90
48264;DHT22;34086;51.076;13.722;2024-02-16T02:26:40;7.60;99.90
48264;DHT22;34086;51.076;13.722;2024-02-16T02:27:42;7.60;99.90
48264;DHT22;34086;51.076;13.722;2024-02-16T02:28:42;7.70;99.90
48264;DHT22;34086;51.076;13.722;2024-02-16T02:29:43;7.70;99.90
48264;DHT22;34086;51.076;13.722;2024-02-16T02:30:45;7.70;99.90
48264;DHT22;34086;51.076;13.722;2024-02-16T02:31:46;7.80;99.90
48264;DHT22;34086;51.076;13.722;2024-02-16T02:32:47;7.80;99.90
48264;DHT22;34086;51.076;13.722;2024-02-16T02:33:47;7.80;99.90
48264;DHT22;34086;51.076;13.722;2024-02-16T02:34:48;7.80;99.90
48264;DHT22;34086;51.076;13.722;2024-02-16T02:35:48;7.90;99.90
48264;DHT22;34086;51.076;13.722;2024-02-16T02:36:49;7.80;99.90
48264;DHT22;34086;51.076;13.722;2024-02-16T02:37:49;7.90;99.90
48264;DHT22;34086;51.076;13.722;2024-02-16T02:38:50;7.80;99.90
48264;DHT22;34086;51.076;13.722;2024-02-16T02:39:50;7.80;99.90
48264;DHT22;34086;51.076;13.722;2024-02-16T02:40:51;7.70;99.90
48264;DHT22;34086;51.076;13.722;2024-02-16T02:41:51;7.60;99.90
48264;DHT22;34086;51.076;13.722;2024-02-16T02:42:52;7.70;99.90
48264;DHT22;34086;51.076;13.722;2024-02-16T02:43:53;7.60;99.90
48264;DHT22;34086;51.076;13.722;2024-02-16T02:44:54;7.60;99.90
48264;DHT22;34086;51.076;13.722;2024-02-16T02:45:54;7.60;99.90
48264;DHT22;34086;51.076;13.722;2024-02-16T02:46:55;7.70;99.90
48264;DHT22;34086;51.076;13.722;2024-02-16T02:47:56;7.70;99.90
48264;DHT22;34086;51.076;13.722;2024-02-16T02:48:57;7.80;99.90
48264;DHT22;34086;51.076;13.722;2024-02-16T02:49:57;7.80;99.90
48264;DHT22;34086;51.076;13.722;2024-02-16T02:50:58;7.80;99.90
48264;DHT22;34086;51.076;13.722;2024-02-16T02:52:00;7.70;99.90
48264;DHT22;34086;51.076;13.722;2024-02-16T02:53:00;7.60;99.90
48264;DHT22;34086;51.076;13.722;2024-02-16T02:54:01;7.60;99.90
48264;DHT22;34086;51.076;13.722;2024-02-16T02:55:02;7.70;99.90
48264;DHT22;34086;51.076;13.722;2024-02-16T02:56:03;7.70;99.90
48264;DHT22;34086;51.076;13.722;2024-02-16T02:57:04;7.70;99.90
48264;DHT22;34086;51.076;13.722;2024-02-16T02:58:05;7.80;99.90
48264;DHT22;34086;51.076;13.722;2024-02-16T02:59:05;7.80;99.90
48264;DHT22;34086;51.076;13.722;2024-02-16T03:00:07;7.90;99.90
48264;DHT22;34086;51.076;13.722;2024-02-16T03:01:11;8.00;99.90
48264;DHT22;34086;51.076;13.722;2024-02-16T03:02:12;8.10;99.90
48264;DHT22;34086;51.076;13.722;2024-02-16T03:03:12;8.10;99.90
48264;DHT22;34086;51.076;13.722;2024-02-16T03:04:14;8.10;99.90
48264;DHT22;34086;51.076;13.722;2024-02-16T03:05:14;8.20;99.90
48264;DHT22;34086;51.076;13.722;2024-02-16T03:06:19;8.20;99.90
48264;DHT22;34086;51.076;13.722;2024-02-16T03:07:19;8.20;99.90
48264;DHT22;34086;51.076;13.722;2024-02-16T03:08:20;8.30;99.90
48264;DHT22;34086;51.076;13.722;2024-02-16T03:09:20;8.30;99.90
48264;DHT22;34086;51.076;13.722;2024-02-16T03:10:21;8.40;99.90
48264;DHT22;34086;51.076;13.722;2024-02-16T03:11:24;8.40;99.90
48264;DHT22;34086;51.076;13.722;2024-02-16T03:12:24;8.50;99.90
48264;DHT22;34086;51.076;13.722;2024-02-16T03:13:25;8.50;99.90
48264;DHT22;34086;51.076;13.722;2024-02-16T03:14:25;8.60;99.90
48264;DHT22;34086;51.076;13.722;2024-02-16T03:15:26;8.60;99.90
48264;DHT22;34086;51.076;13.722;2024-02-16T03:16:26;8.70;99.90
48264;DHT22;34086;51.076;13.722;2024-02-16T03:17:27;8.80;99.90
48264;DHT22;34086;51.076;13.722;2024-02-16T03:18:33;8.80;99.90
48264;DHT22;34086;51.076;13.722;2024-02-16T03:19:37;8.80;99.90
48264;DHT22;34086;51.076;13.722;2024-02-16T03:20:37;8.90;99.90
48264;DHT22;34086;51.076;13.722;2024-02-16T03:21:38;8.90;99.90
48264;DHT22;34086;51.076;13.722;2024-02-16T03:22:38;9.00;99.90
48264;DHT22;34086;51.076;13.722;2024-02-16T03:23:39;9.10;99.90
48264;DHT22;34086;51.076;13.722;2024-02-16T03:24:40;9.10;99.90
48264;DHT22;34086;51.076;13.722;2024-02-16T03:25:41;9.10;99.90
48264;DHT22;34086;51.076;13.722;2024-02-16T03:26:41;9.20;99.90
48264;DHT22;34086;51.076;13.722;2024-02-16T03:27:43;9.20;99.90
48264;DHT22;34086;51.076;13.722;2024-02-16T03:28:44;9.20;99.90
48264;DHT22;34086;51.076;13.722;2024-02-16T03:29:47;9.20;99.90
48264;DHT22;34086;51.076;13.722;2024-02-16T03:30:48;9.30;99.90
48264;DHT22;34086;51.076;13.722;2024-02-16T03:31:50;9.40;99.90
48264;DHT22;34086;51.076;13.722;2024-02-16T03:32:51;9.40;99.90
48264;DHT22;34086;51.076;13.722;2024-02-16T03:33:52;9.40;99.90
48264;DHT22;34086;51.076;13.722;2024-02-16T03:34:53;9.40;99.90
48264;DHT22;34086;51.076;13.722;2024-02-16T03:35:53;9.30;99.90
48264;DHT22;34086;51.076;13.722;2024-02-16T03:36:54;9.40;99.90
48264;DHT22;34086;51.076;13.722;2024-02-16T03:37:54;9.40;99.90
48264;DHT22;34086;51.076;13.722;2024-02-16T03:38:56;9.40;99.90
48264;DHT22;34086;51.076;13.722;2024-02-16T03:39:56;9.50;99.90
48264;DHT22;34086;51.076;13.722;2024-02-16T03:40:57;9.50;99.90
48264;DHT22;34086;51.076;13.722;2024-02-16T03:41:58;9.50;99.90
48264;DHT22;34086;51.076;13.722;2024-02-16T03:42:59;9.50;99.90
48264;DHT22;34086;51.076;13.722;2024-02-16T03:43:59;9.50;99.90
48264;DHT22;34086;51.076;13.722;2024-02-16T03:45:00;9.50;99.90
48264;DHT22;34086;51.076;13.722;2024-02-16T03:46:01;9.50;99.90
48264;DHT22;34086;51.076;13.722;2024-02-16T03:47:02;9.50;99.90
48264;DHT22;34086;51.076;13.722;2024-02-16T03:48:03;9.40;99.90
48264;DHT22;34086;51.076;13.722;2024-02-16T03:49:03;9.40;99.90
48264;DHT22;34086;51.076;13.722;2024-02-16T03:50:04;9.40;99.90
48264;DHT22;34086;51.076;13.722;2024-02-16T03:51:05;9.40;99.90
48264;DHT22;34086;51.076;13.722;2024-02-16T03:52:05;9.40;99.90
48264;DHT22;34086;51.076;13.722;2024-02-16T03:53:06;9.50;99.90
48264;DHT22;34086;51.076;13.722;2024-02-16T03:54:06;9.50;99.90
48264;DHT22;34086;51.076;13.722;2024-02-16T03:55:07;9.50;99.90
48264;DHT22;34086;51.076;13.722;2024-02-16T03:56:08;9.40;99.90
48264;DHT22;34086;51.076;13.722;2024-02-16T03:57:09;9.40;99.90
48264;DHT22;34086;51.076;13.722;2024-02-16T03:58:11;9.40;99.90
48264;DHT22;34086;51.076;13.722;2024-02-16T03:59:12;9.40;99.90
48264;DHT22;34086;51.076;13.722;2024-02-16T04:00:13;9.30;99.90
48264;DHT22;34086;51.076;13.722;2024-02-16T04:01:15;9.40;99.90
48264;DHT22;34086;51.076;13.722;2024-02-16T04:02:15;9.40;99.90
48264;DHT22;34086;51.076;13.722;2024-02-16T04:03:16;9.30;99.90
48264;DHT22;34086;51.076;13.722;2024-02-16T04:04:17;9.30;99.90
48264;DHT22;34086;51.076;13.722;2024-02-16T04:05:18;9.30;99.90
48264;DHT22;34086;51.076;13.722;2024-02-16T04:06:19;9.30;99.90
48264;DHT22;34086;51.076;13.722;2024-02-16T04:07:20;9.30;99.90
48264;DHT22;34086;51.076;13.722;2024-02-16T04:08:20;9.20;99.90
48264;DHT22;34086;51.076;13.722;2024-02-16T04:09:21;9.20;99.90
48264;DHT22;34086;51.076;13.722;2024-02-16T04:10:21;9.20;99.90
48264;DHT22;34086;51.076;13.722;2024-02-16T04:11:22;9.20;99.90
48264;DHT22;34086;51.076;13.722;2024-02-16T04:12:23;9.20;99.90
48264;DHT22;34086;51.076;13.722;2024-02-16T04:13:23;9.20;99.90
48264;DHT22;34086;51.076;13.722;2024-02-16T04:14:24;9.30;99.90
48264;DHT22;34086;51.076;13.722;2024-02-16T04:15:24;9.20;99.90
48264;DHT22;34086;51.076;13.722;2024-02-16T04:16:25;9.20;99.90
48264;DHT22;34086;51.076;13.722;2024-02-16T04:17:26;9.20;99.90
48264;DHT22;34086;51.076;13.722;2024-02-16T04:18:26;9.20;99.90
48264;DHT22;34086;51.076;13.722;2024-02-16T04:19:27;9.20;99.90
48264;DHT22;34086;51.076;13.722;2024-02-16T04:20:27;9.20;99.90
48264;DHT22;34086;51.076;13.722;2024-02-16T04:21:28;9.20;99.90
48264;DHT22;34086;51.076;13.722;2024-02-16T04:22:28;9.20;99.90
48264;DHT22;34086;51.076;13.722;2024-02-16T04:23:29;9.20;99.90
48264;DHT22;34086;51.076;13.722;2024-02-16T04:24:29;9.20;99.90
48264;DHT22;34086;51.076;13.722;2024-02-16T04:25:30;9.20;99.90
48264;DHT22;34086;51.076;13.722;2024-02-16T04:26:30;9.20;99.90
48264;DHT22;34086;51.076;13.722;2024-02-16T04:27:31;9.10;99.90
48264;DHT22;34086;51.076;13.722;2024-02-16T04:28:32;9.10;99.90
48264;DHT22;34086;51.076;13.722;2024-02-16T04:29:32;9.10;99.90
48264;DHT22;34086;51.076;13.722;2024-02-16T04:30:33;9.10;99.90
48264;DHT22;34086;51.076;13.722;2024-02-16T04:31:33;9.10;99.90
48264;DHT22;34086;51.076;13.722;2024-02-16T04:32:34;9.00;99.90
48264;DHT22;34086;51.076;13.722;2024-02-16T04:33:34;9.00;99.90
48264;DHT22;34086;51.076;13.722;2024-02-16T04:34:35;9.10;99.90
48264;DHT22;34086;51.076;13.722;2024-02-16T04:35:36;9.10;99.90
48264;DHT22;34086;51.076;13.722;2024-02-16T04:36:36;9.00;99.90
48264;DHT22;34086;51.076;13.722;2024-02-16T04:37:38;9.00;99.90
48264;DHT22;34086;51.076;13.722;2024-02-16T04:38:39;9.00;99.90
48264;DHT22;34086;51.076;13.722;2024-02-16T04:39:40;9.00;99.90
48264;DHT22;34086;51.076;13.722;2024-02-16T04:40:40;9.00;99.90
48264;DHT22;34086;51.076;13.722;2024-02-16T04:41:41;9.00;99.90
48264;DHT22;34086;51.076;13.722;2024-02-16T04:42:41;9.00;99.90
48264;DHT22;34086;51.076;13.722;2024-02-16T04:43:42;8.90;99.90
48264;DHT22;34086;51.076;13.722;2024-02-16T04:44:43;8.90;99.90
48264;DHT22;34086;51.076;13.722;2024-02-16T04:45:43;8.90;99.90
48264;DHT22;34086;51.076;13.722;2024-02-16T04:46:44;8.90;99.90
48264;DHT22;34086;51.076;13.722;2024-02-16T04:47:44;8.90;99.90
48264;DHT22;34086;51.076;13.722;2024-02-16T04:48:45;8.80;99.90
48264;DHT22;34086;51.076;13.722;2024-02-16T04:49:46;8.80;99.90
48264;DHT22;34086;51.076;13.722;2024-02-16T04:50:46;8.80;99.90
48264;DHT22;34086;51.076;13.722;2024-02-16T04:51:47;8.80;99.90
48264;DHT22;34086;51.076;13.722;2024-02-16T04:52:47;8.80;99.90
48264;DHT22;34086;51.076;13.722;2024-02-16T04:53:48;8.80;99.90
48264;DHT22;34086;51.076;13.722;2024-02-16T04:54:48;8.80;99.90
48264;DHT22;34086;51.076;13.722;2024-02-16T04:55:49;8.80;99.90
48264;DHT22;34086;51.076;13.722;2024-02-16T04:56:50;8.80;99.90
48264;DHT22;34086;51.076;13.722;2024-02-16T04:57:50;8.80;99.90
48264;DHT22;34086;51.076;13.722;2024-02-16T04:58:51;8.70;99.90
48264;DHT22;34086;51.076;13.722;2024-02-16T04:59:52;8.70;99.90
48264;DHT22;34086;51.076;13.722;2024-02-16T05:00:52;8.70;99.90
48264;DHT22;34086;51.076;13.722;2024-02-16T05:01:53;8.70;99.90
48264;DHT22;34086;51.076;13.722;2024-02-16T05:02:53;8.70;99.90
48264;DHT22;34086;51.076;13.722;2024-02-16T05:03:54;8.70;99.90
48264;DHT22;34086;51.076;13.722;2024-02-16T05:04:54;8.70;99.90
48264;DHT22;34086;51.076;13.722;2024-02-16T05:05:55;8.70;99.90
48264;DHT22;34086;51.076;13.722;2024-02-16T05:06:55;8.70;99.90
48264;DHT22;34086;51.076;13.722;2024-02-16T05:07:57;8.70;99.90
48264;DHT22;34086;51.076;13.722;2024-02-16T05:08:58;8.80;99.90
48264;DHT22;34086;51.076;13.722;2024-02-16T05:09:59;8.70;99.90
48264;DHT22;34086;51.076;13.722;2024-02-16T05:11:02;8.70;99.90
48264;DHT22;34086;51.076;13.722;2024-02-16T05:12:03;8.70;99.90
48264;DHT22;34086;51.076;13.722;2024-02-16T05:13:04;8.70;99.90
48264;DHT22;34086;51.076;13.722;2024-02-16T05:14:05;8.70;99.90
48264;DHT22;34086;51.076;13.722;2024-02-16T05:15:06;8.70;99.90
48264;DHT22;34086;51.076;13.722;2024-02-16T05:16:09;8.70;99.90
48264;DHT22;34086;51.076;13.722;2024-02-16T05:17:09;8.70;99.90
48264;DHT22;34086;51.076;13.722;2024-02-16T05:18:10;8.70;99.90
48264;DHT22;34086;51.076;13.722;2024-02-16T05:19:13;8.70;99.90
48264;DHT22;34086;51.076;13.722;2024-02-16T05:20:13;8.70;99.90
48264;DHT22;34086;51.076;13.722;2024-02-16T05:21:17;8.70;99.90
48264;DHT22;34086;51.076;13.722;2024-02-16T05:22:17;8.70;99.90
48264;DHT22;34086;51.076;13.722;2024-02-16T05:23:22;8.80;99.90
48264;DHT22;34086;51.076;13.722;2024-02-16T05:24:23;8.80;99.90
48264;DHT22;34086;51.076;13.722;2024-02-16T05:25:24;8.80;99.90
48264;DHT22;34086;51.076;13.722;2024-02-16T05:26:24;8.70;99.90
48264;DHT22;34086;51.076;13.722;2024-02-16T05:27:25;8.80;99.90
48264;DHT22;34086;51.076;13.722;2024-02-16T05:28:25;8.80;99.90
48264;DHT22;34086;51.076;13.722;2024-02-16T05:29:26;8.70;99.90
48264;DHT22;34086;51.076;13.722;2024-02-16T05:30:27;8.70;99.90
48264;DHT22;34086;51.076;13.722;2024-02-16T05:31:28;8.70;99.90
48264;DHT22;34086;51.076;13.722;2024-02-16T05:32:29;8.80;99.90
48264;DHT22;34086;51.076;13.722;2024-02-16T05:33:29;8.80;99.90
48264;DHT22;34086;51.076;13.722;2024-02-16T05:34:30;8.80;99.90
48264;DHT22;34086;51.076;13.722;2024-02-16T05:35:37;8.80;99.90
48264;DHT22;34086;51.076;13.722;2024-02-16T05:36:40;8.80;99.90
48264;DHT22;34086;51.076;13.722;2024-02-16T05:37:44;8.80;99.90
48264;DHT22;34086;51.076;13.722;2024-02-16T05:38:44;8.80;99.90
48264;DHT22;34086;51.076;13.722;2024-02-16T05:39:45;8.80;99.90
48264;DHT22;34086;51.076;13.722;2024-02-16T05:40:58;8.80;99.90
48264;DHT22;34086;51.076;13.722;2024-02-16T05:41:58;8.80;99.90
48264;DHT22;34086;51.076;13.722;2024-02-16T05:42:59;8.80;99.90
48264;DHT22;34086;51.076;13.722;2024-02-16T05:44:00;8.80;99.90
48264;DHT22;34086;51.076;13.722;2024-02-16T05:45:01;8.80;99.90
48264;DHT22;34086;51.076;13.722;2024-02-16T05:46:02;8.80;99.90
48264;DHT22;34086;51.076;13.722;2024-02-16T05:47:02;8.70;99.90
48264;DHT22;34086;51.076;13.722;2024-02-16T05:48:03;8.70;99.90
48264;DHT22;34086;51.076;13.722;2024-02-16T05:49:04;8.70;99.90
48264;DHT22;34086;51.076;13.722;2024-02-16T05:50:08;8.70;99.90
48264;DHT22;34086;51.076;13.722;2024-02-16T05:51:08;8.70;99.90
48264;DHT22;34086;51.076;13.722;2024-02-16T05:52:09;8.70;99.90
48264;DHT22;34086;51.076;13.722;2024-02-16T05:53:19;8.70;99.90
48264;DHT22;34086;51.076;13.722;2024-02-16T05:54:19;8.70;99.90
48264;DHT22;34086;51.076;13.722;2024-02-16T05:55:20;8.70;99.90
48264;DHT22;34086;51.076;13.722;2024-02-16T05:56:20;8.70;99.90
48264;DHT22;34086;51.076;13.722;2024-02-16T05:57:23;8.70;99.90
48264;DHT22;34086;51.076;13.722;2024-02-16T05:58:25;8.70;99.90
48264;DHT22;34086;51.076;13.722;2024-02-16T05:59:25;8.70;99.90
48264;DHT22;34086;51.076;13.722;2024-02-16T06:00:27;8.70;99.90
48264;DHT22;34086;51.076;13.722;2024-02-16T06:01:29;8.60;99.90
48264;DHT22;34086;51.076;13.722;2024-02-16T06:02:30;8.60;99.90
48264;DHT22;34086;51.076;13.722;2024-02-16T06:03:31;8.60;99.90
48264;DHT22;34086;51.076;13.722;2024-02-16T06:04:32;8.60;99.90
48264;DHT22;34086;51.076;13.722;2024-02-16T06:05:33;8.60;99.90
48264;DHT22;34086;51.076;13.722;2024-02-16T06:06:35;8.60;99.90
48264;DHT22;34086;51.076;13.722;2024-02-16T06:07:36;8.60;99.90
48264;DHT22;34086;51.076;13.722;2024-02-16T06:08:38;8.70;99.90
48264;DHT22;34086;51.076;13.722;2024-02-16T06:09:39;8.70;99.90
48264;DHT22;34086;51.076;13.722;2024-02-16T06:10:40;8.70;99.90
48264;DHT22;34086;51.076;13.722;2024-02-16T06:11:42;8.70;99.90
48264;DHT22;34086;51.076;13.722;2024-02-16T06:12:42;8.70;99.90
48264;DHT22;34086;51.076;13.722;2024-02-16T06:13:43;8.70;99.90
48264;DHT22;34086;51.076;13.722;2024-02-16T06:14:43;8.70;99.90
48264;DHT22;34086;51.076;13.722;2024-02-16T06:15:44;8.70;99.90
48264;DHT22;34086;51.076;13.722;2024-02-16T06:16:57;8.60;99.90
48264;DHT22;34086;51.076;13.722;2024-02-16T06:17:57;8.70;99.90
48264;DHT22;34086;51.076;13.722;2024-02-16T06:18:58;8.60;99.90
48264;DHT22;34086;51.076;13.722;2024-02-16T06:19:58;8.60;99.90
48264;DHT22;34086;51.076;13.722;2024-02-16T06:20:59;8.60;99.90
48264;DHT22;34086;51.076;13.722;2024-02-16T06:22:00;8.60;99.90
48264;DHT22;34086;51.076;13.722;2024-02-16T06:23:00;8.60;99.90
48264;DHT22;34086;51.076;13.722;2024-02-16T06:24:02;8.60;99.90
48264;DHT22;34086;51.076;13.722;2024-02-16T06:25:03;8.60;99.90